Time;durP1;ratioP1;P1;durP2;ratioP2;P2;SDS_P1;SDS_P2;PMS_P1;PMS_P2;Temp;Humidity;BMP_temperature;BMP_pressure;BME280_temperature;BME280_humidity;BME280_pressure;Samples;Min_cycle;Max_cycle;Signal;HPM_P1;HPM_P2
2021/03/27 00:00:41;;;;;;;7.65;4.90;;;;;;;9.55;48.31;95793.28;5031422;28;20136;-48
2021/03/27 00:03:20;;;;;;;6.88;4.70;;;;;;;9.57;48.52;95791.00;5031395;28;20073;-53
2021/03/27 00:06:06;;;;;;;7.38;4.82;;;;;;;9.62;48.14;95787.34;5029918;28;20283;-51
2021/03/27 00:09:13;;;;;;;6.43;4.20;;;;;;;9.59;48.11;95794.19;5030774;28;20107;-50
2021/03/27 00:12:04;;;;;;;6.53;3.63;;;;;;;9.48;48.27;95789.50;5031224;28;20465;-49
2021/03/27 00:14:42;;;;;;;7.93;4.13;;;;;;;9.58;47.94;95795.28;5029728;28;20052;-50
2021/03/27 00:18:13;;;;;;;6.88;4.18;;;;;;;9.68;48.02;95804.91;5034288;28;20050;-51
2021/03/27 00:20:53;;;;;;;7.45;3.83;;;;;;;9.56;48.15;95796.75;5029900;28;20053;-49
2021/03/27 00:23:28;;;;;;;7.50;3.97;;;;;;;9.64;47.79;95801.28;5031686;28;20499;-51
2021/03/27 00:26:05;;;;;;;8.00;3.70;;;;;;;9.68;47.61;95809.53;5031016;28;20057;-49
2021/03/27 00:28:43;;;;;;;5.85;3.97;;;;;;;9.55;48.11;95811.38;5031364;28;20041;-49
2021/03/27 00:31:16;;;;;;;6.20;4.22;;;;;;;9.58;47.73;95818.81;5046468;28;20076;-49
2021/03/27 00:33:46;;;;;;;6.72;3.80;;;;;;;9.48;48.14;95838.88;5046385;28;20057;-48
2021/03/27 00:36:19;;;;;;;6.03;3.55;;;;;;;9.51;48.01;95815.84;5030768;28;20065;-50
2021/03/27 00:38:54;;;;;;;7.25;3.90;;;;;;;9.41;48.44;95838.63;5042146;28;20537;-52
2021/03/27 00:41:32;;;;;;;6.90;3.30;;;;;;;9.33;48.53;95820.59;5031008;28;20522;-48
2021/03/27 00:44:03;;;;;;;5.25;3.53;;;;;;;9.45;48.32;95838.75;5031459;28;20554;-48
2021/03/27 00:46:31;;;;;;;8.10;3.60;;;;;;;9.53;48.31;95819.81;5034525;28;20124;-50
2021/03/27 00:49:04;;;;;;;5.90;3.42;;;;;;;9.48;48.76;95828.09;5034643;28;20054;-49
2021/03/27 00:51:38;;;;;;;6.32;4.15;;;;;;;9.46;48.50;95840.38;5033255;28;20156;-49
2021/03/27 00:54:20;;;;;;;7.95;3.25;;;;;;;9.18;49.35;95826.53;5050091;28;20333;-48
2021/03/27 00:57:20;;;;;;;6.18;3.20;;;;;;;9.34;48.98;95805.94;5034131;28;20532;-49
2021/03/27 01:00:14;;;;;;;5.82;3.00;;;;;;;9.41;48.81;95787.31;5019797;28;20049;-48
2021/03/27 01:03:07;;;;;;;7.95;3.05;;;;;;;9.52;48.66;95780.44;5034456;28;20053;-50
2021/03/27 01:05:55;;;;;;;4.68;3.20;;;;;;;9.58;48.47;95794.50;5034167;28;20423;-51
2021/03/27 01:08:53;;;;;;;5.53;3.25;;;;;;;9.55;48.65;95785.19;5027859;28;20526;-49
2021/03/27 01:12:11;;;;;;;5.47;3.38;;;;;;;9.53;48.35;95781.22;5034590;28;20187;-50
2021/03/27 01:14:53;;;;;;;6.78;3.20;;;;;;;9.59;48.14;95775.28;5033814;28;20147;-50
2021/03/27 01:17:26;;;;;;;5.78;3.45;;;;;;;9.58;48.16;95787.19;5032510;28;20046;-52
2021/03/27 01:20:00;;;;;;;6.38;3.53;;;;;;;9.59;48.04;95788.00;5032961;28;20045;-49
2021/03/27 01:22:28;;;;;;;5.65;3.53;;;;;;;9.60;48.27;95790.38;5034193;28;20049;-50
2021/03/27 01:25:00;;;;;;;5.70;3.10;;;;;;;9.48;48.24;95790.28;5034087;28;20128;-51
2021/03/27 01:27:31;;;;;;;7.13;3.72;;;;;;;9.67;48.16;95802.56;5033461;28;20060;-49
2021/03/27 01:30:34;;;;;;;5.75;3.42;;;;;;;9.44;48.55;95794.75;5033755;28;20136;-51
2021/03/27 01:33:20;;;;;;;5.22;3.42;;;;;;;9.57;48.55;95784.81;5033649;28;20414;-48
2021/03/27 01:35:59;;;;;;;5.85;3.33;;;;;;;9.66;48.11;95769.34;5033732;28;20510;-52
2021/03/27 01:38:56;;;;;;;5.32;3.50;;;;;;;9.54;49.07;95761.97;5033551;28;20060;-48
2021/03/27 01:41:41;;;;;;;5.07;3.00;;;;;;;9.61;48.52;95764.13;5033966;28;20053;-50
2021/03/27 01:44:32;;;;;;;7.60;3.38;;;;;;;9.56;48.78;95758.94;5033739;28;20083;-49
2021/03/27 01:47:07;;;;;;;6.03;3.33;;;;;;;9.55;49.05;95752.75;5033190;28;20059;-50
2021/03/27 01:49:33;;;;;;;7.82;3.70;;;;;;;9.84;48.04;95754.56;5034033;28;20057;-52
2021/03/27 01:52:03;;;;;;;5.95;3.45;;;;;;;9.83;48.33;95752.19;5033595;28;20073;-50
2021/03/27 01:54:35;;;;;;;5.00;3.30;;;;;;;9.90;48.29;95752.44;5033468;28;20581;-49
2021/03/27 01:57:01;;;;;;;7.13;3.75;;;;;;;9.81;48.59;95746.31;5032214;28;20100;-53
2021/03/27 01:59:35;;;;;;;6.78;3.83;;;;;;;9.84;48.11;95743.75;5033552;28;20088;-50
2021/03/27 02:02:30;;;;;;;5.85;3.55;;;;;;;9.94;48.26;95730.94;5033865;28;20053;-49
2021/03/27 02:05:24;;;;;;;6.75;3.35;;;;;;;9.88;48.09;95719.59;5033782;28;20064;-53
2021/03/27 02:08:18;;;;;;;7.63;3.80;;;;;;;9.90;48.24;95728.13;5028745;28;20045;-49
2021/03/27 02:11:06;;;;;;;5.70;4.05;;;;;;;10.16;47.35;95744.09;5033087;28;20049;-51
2021/03/27 02:13:43;;;;;;;5.32;3.15;;;;;;;9.74;47.91;95741.47;5033084;28;20136;-49
2021/03/27 02:16:22;;;;;;;7.72;3.70;;;;;;;9.86;47.99;95759.66;5033061;28;20057;-49
2021/03/27 02:19:51;;;;;;;7.43;3.55;;;;;;;9.69;48.36;95765.22;5033191;28;20564;-49
2021/03/27 02:22:20;;;;;;;6.28;3.45;;;;;;;9.69;48.14;95738.97;5031717;28;20514;-48
2021/03/27 02:25:30;;;;;;;5.68;3.33;;;;;;;9.81;47.74;95728.22;5032967;28;20049;-48
2021/03/27 02:28:15;;;;;;;6.40;3.38;;;;;;;9.87;47.89;95742.31;5032523;28;20045;-48
2021/03/27 02:30:47;;;;;;;8.05;3.28;;;;;;;9.72;47.79;95730.22;5045755;28;20053;-48
2021/03/27 02:33:33;;;;;;;6.63;3.28;;;;;;;9.72;47.74;95741.03;5052713;28;20580;-48
2021/03/27 02:36:06;;;;;;;7.10;3.35;;;;;;;9.72;47.71;95741.03;5041387;28;20111;-52
2021/03/27 02:38:50;;;;;;;7.05;3.00;;;;;;;9.59;48.22;95732.06;5045576;28;20094;-50
2021/03/27 02:41:37;;;;;;;5.55;3.38;;;;;;;9.69;47.98;95727.38;5052568;28;20051;-48
2021/03/27 02:44:33;;;;;;;7.75;3.65;;;;;;;9.64;47.85;95732.97;5052401;28;20053;-47
2021/03/27 02:47:14;;;;;;;6.47;3.17;;;;;;;9.52;48.04;95742.63;5049577;28;20059;-47
2021/03/27 02:49:48;;;;;;;5.82;3.33;;;;;;;9.40;48.25;95750.66;5047389;28;20059;-50
2021/03/27 02:52:24;;;;;;;5.97;3.25;;;;;;;9.26;48.43;95758.19;5052549;28;20053;-50
2021/03/27 02:55:00;;;;;;;7.65;3.38;;;;;;;9.36;48.50;95776.72;5052095;28;20131;-50
2021/03/27 02:57:53;;;;;;;4.97;2.97;;;;;;;9.07;49.04;95791.81;5046568;28;20064;-50
2021/03/27 03:00:28;;;;;;;7.80;3.83;;;;;;;9.19;49.15;95803.81;5031225;28;20049;-49
2021/03/27 03:03:04;;;;;;;4.93;2.83;;;;;;;9.08;49.13;95806.09;5032104;28;20050;-54
2021/03/27 03:05:33;;;;;;;4.90;3.10;;;;;;;8.75;50.37;95800.53;5047190;28;20045;-49
2021/03/27 03:08:09;;;;;;;4.32;2.75;;;;;;;8.72;50.02;95806.56;5031311;28;20140;-48
2021/03/27 03:10:42;;;;;;;7.53;3.38;;;;;;;8.65;50.71;95804.38;5031997;28;20084;-51
2021/03/27 03:13:22;;;;;;;5.88;3.35;;;;;;;8.78;50.61;95799.88;5032170;28;20159;-48
2021/03/27 03:16:14;;;;;;;6.47;3.15;;;;;;;8.84;50.40;95801.28;5031699;28;20460;-51
2021/03/27 03:18:58;;;;;;;8.73;2.97;;;;;;;8.63;51.10;95804.69;5031862;28;20141;-51
2021/03/27 03:21:35;;;;;;;6.10;3.15;;;;;;;8.57;51.35;95795.19;5031933;28;20419;-51
2021/03/27 03:24:22;;;;;;;5.78;3.00;;;;;;;8.57;51.59;95805.97;5031583;28;20056;-51
2021/03/27 03:27:06;;;;;;;5.88;3.13;;;;;;;8.40;51.84;95814.91;5031383;28;20053;-49
2021/03/27 03:29:54;;;;;;;5.30;3.30;;;;;;;8.59;51.72;95814.53;5035335;28;20045;-48
2021/03/27 03:32:39;;;;;;;5.43;3.22;;;;;;;8.54;51.71;95825.47;5051771;28;20056;-50
2021/03/27 03:35:32;;;;;;;6.07;3.17;;;;;;;8.43;52.00;95821.56;5034433;28;20111;-49
2021/03/27 03:38:17;;;;;;;6.88;3.25;;;;;;;8.54;52.22;95833.56;5031254;28;20124;-51
2021/03/27 03:41:05;;;;;;;5.70;2.95;;;;;;;8.50;52.44;95832.63;5031670;28;20057;-48
2021/03/27 03:43:54;;;;;;;6.32;3.05;;;;;;;8.39;52.53;95828.72;5031993;28;20058;-52
2021/03/27 03:46:45;;;;;;;5.47;3.42;;;;;;;8.39;52.60;95831.41;5030036;28;20057;-51
2021/03/27 03:49:41;;;;;;;6.07;3.30;;;;;;;8.36;52.77;95832.03;5031559;28;20049;-50
2021/03/27 03:52:36;;;;;;;7.63;4.05;;;;;;;8.32;53.19;95826.47;5046388;28;20502;-49
2021/03/27 03:55:06;;;;;;;5.03;3.65;;;;;;;8.46;52.96;95830.91;5030246;28;20064;-50
2021/03/27 03:57:46;;;;;;;8.93;3.80;;;;;;;8.45;52.88;95827.44;5031195;28;20657;-49
2021/03/27 04:00:34;;;;;;;6.95;3.78;;;;;;;8.25;53.55;95834.22;5031442;28;20057;-50
2021/03/27 04:03:13;;;;;;;7.75;4.03;;;;;;;8.37;53.42;95836.28;5031379;28;20115;-50
2021/03/27 04:05:49;;;;;;;7.22;4.07;;;;;;;8.30;53.57;95844.06;5031260;28;20061;-49
2021/03/27 04:08:43;;;;;;;7.18;4.45;;;;;;;8.18;54.64;95842.00;5031169;28;20099;-50
2021/03/27 04:11:49;;;;;;;7.63;4.13;;;;;;;8.41;54.23;95848.81;5031567;28;20055;-48
2021/03/27 04:14:27;;;;;;;8.50;4.68;;;;;;;8.55;54.32;95848.66;5031252;28;20111;-51
2021/03/27 04:17:02;;;;;;;9.52;4.60;;;;;;;8.48;54.80;95847.53;5032149;28;20502;-51
2021/03/27 04:19:32;;;;;;;7.60;4.55;;;;;;;8.50;55.08;95851.50;5052684;28;20110;-48
2021/03/27 04:22:10;;;;;;;6.65;4.60;;;;;;;8.57;55.29;95861.81;5055351;28;20045;-50
2021/03/27 04:25:01;;;;;;;9.07;5.75;;;;;;;8.48;55.94;95861.03;5055208;28;20072;-51
2021/03/27 04:27:35;;;;;;;7.88;5.53;;;;;;;8.48;56.13;95872.59;5035261;28;20053;-52
2021/03/27 04:30:30;;;;;;;8.32;5.20;;;;;;;8.57;56.21;95875.28;5042440;28;20060;-49
2021/03/27 04:33:07;;;;;;;9.35;5.22;;;;;;;8.69;56.23;95875.44;5055041;28;20053;-49
2021/03/27 04:35:46;;;;;;;10.40;5.50;;;;;;;8.50;56.91;95883.88;5053487;28;20166;-50
2021/03/27 04:38:34;;;;;;;8.27;5.05;;;;;;;8.66;56.44;95886.88;5042932;28;20099;-49
2021/03/27 04:41:19;;;;;;;9.65;5.75;;;;;;;8.69;56.81;95898.91;5034789;28;20198;-51
2021/03/27 04:43:52;;;;;;;11.48;5.97;;;;;;;8.74;56.55;95898.72;5034778;28;20076;-50
2021/03/27 04:47:02;;;;;;;7.85;4.95;;;;;;;8.79;56.60;95909.38;5034740;28;20049;-51
2021/03/27 04:49:40;;;;;;;9.48;5.53;;;;;;;8.79;56.78;95899.38;5028020;28;20049;-51
2021/03/27 04:52:25;;;;;;;7.97;5.15;;;;;;;8.72;57.04;95903.69;5034698;28;20541;-52
2021/03/27 04:54:54;;;;;;;9.43;5.63;;;;;;;8.78;56.86;95905.09;5034763;28;20060;-49
2021/03/27 04:57:25;;;;;;;10.43;5.60;;;;;;;8.71;56.88;95918.25;5034470;28;20057;-51
2021/03/27 05:00:17;;;;;;;9.27;5.35;;;;;;;8.77;56.69;95916.97;5034748;28;20088;-48
2021/03/27 05:03:06;;;;;;;10.52;5.53;;;;;;;8.93;56.23;95919.97;5034591;28;20055;-48
2021/03/27 05:05:42;;;;;;;8.07;5.10;;;;;;;8.92;56.84;95926.47;5034452;28;20056;-50
2021/03/27 05:08:21;;;;;;;7.75;5.60;;;;;;;8.72;57.73;95936.03;5034861;28;20049;-53
2021/03/27 05:10:57;;;;;;;7.57;5.30;;;;;;;8.80;57.84;95943.31;5034641;28;20137;-51
2021/03/27 05:13:43;;;;;;;10.10;5.88;;;;;;;8.75;58.14;95962.38;5034661;28;20059;-48
2021/03/27 05:16:15;;;;;;;7.90;5.68;;;;;;;8.80;58.99;95949.50;5034484;28;20056;-49
2021/03/27 05:18:44;;;;;;;9.85;6.05;;;;;;;8.82;58.98;95968.09;5034366;28;20048;-49
2021/03/27 05:21:26;;;;;;;8.50;5.50;;;;;;;8.80;59.30;95951.41;5035043;28;20107;-48
2021/03/27 05:24:16;;;;;;;9.90;6.13;;;;;;;8.88;59.73;95956.00;5034777;28;20053;-52
2021/03/27 05:26:56;;;;;;;13.70;6.07;;;;;;;8.80;60.77;95964.91;5033709;28;20506;-48
2021/03/27 05:29:31;;;;;;;9.60;5.97;;;;;;;8.79;61.48;95966.81;5034061;28;20068;-48
2021/03/27 05:32:23;;;;;;;8.75;6.40;;;;;;;8.82;61.61;95970.78;5033985;28;20107;-50
2021/03/27 05:34:55;;;;;;;8.75;6.07;;;;;;;8.79;62.95;95968.72;5033970;28;20475;-50
2021/03/27 05:37:33;;;;;;;10.80;6.60;;;;;;;8.84;63.31;95969.34;5033406;28;20049;-48
2021/03/27 05:40:25;;;;;;;12.02;6.75;;;;;;;8.79;63.83;95976.81;5016507;28;20050;-48
2021/03/27 05:43:20;;;;;;;8.63;6.47;;;;;;;8.80;64.36;95987.28;5035098;28;20128;-48
2021/03/27 05:46:11;;;;;;;10.43;5.80;;;;;;;8.74;64.78;95998.53;5033462;28;20053;-52
2021/03/27 05:49:10;;;;;;;9.45;5.85;;;;;;;8.75;65.18;96005.53;5047477;28;20586;-47
2021/03/27 05:51:59;;;;;;;7.72;6.35;;;;;;;8.73;65.31;96005.84;5053472;28;20450;-49
2021/03/27 05:54:40;;;;;;;10.02;6.40;;;;;;;8.80;65.26;96008.06;5053439;28;20049;-51
2021/03/27 05:57:38;;;;;;;10.20;6.82;;;;;;;8.71;65.87;96018.06;5045092;28;20054;-48
2021/03/27 06:00:31;;;;;;;9.98;6.63;;;;;;;8.76;65.98;96021.41;5033665;28;20056;-51
2021/03/27 06:03:29;;;;;;;10.60;6.85;;;;;;;8.76;66.00;96029.50;5033449;28;20041;-50
2021/03/27 06:06:26;;;;;;;9.18;6.40;;;;;;;8.80;66.26;96037.75;5033314;28;20395;-53
2021/03/27 06:09:33;;;;;;;8.82;6.32;;;;;;;8.82;66.20;96044.41;5032648;28;20124;-51
2021/03/27 06:12:16;;;;;;;9.38;5.65;;;;;;;8.90;65.87;96045.50;5042492;28;20094;-48
2021/03/27 06:15:11;;;;;;;7.30;5.30;;;;;;;8.98;65.43;96046.63;5073190;28;20044;-50
2021/03/27 06:18:11;;;;;;;10.30;6.50;;;;;;;9.03;65.52;96041.84;5053988;28;20073;-48
2021/03/27 06:21:13;;;;;;;9.73;5.13;;;;;;;8.95;65.26;96049.97;5032994;28;20145;-50
2021/03/27 06:24:28;;;;;;;7.45;4.35;;;;;;;9.00;65.21;96050.59;5032967;28;20120;-50
2021/03/27 06:27:32;;;;;;;6.93;3.60;;;;;;;8.92;64.69;96064.88;5027271;22;20919;-50
2021/03/27 06:30:05;;;;;;;4.97;3.35;;;;;;;8.98;64.44;96062.81;5026710;28;20780;-50
2021/03/27 06:32:40;;;;;;;4.77;3.10;;;;;;;9.02;64.06;96074.56;5052491;28;20053;-49
2021/03/27 06:35:29;;;;;;;5.28;2.72;;;;;;;8.86;64.15;96077.72;5032512;28;20060;-53
2021/03/27 06:38:33;;;;;;;4.63;2.70;;;;;;;8.89;64.40;96071.69;5031689;28;20045;-53
2021/03/27 06:41:07;;;;;;;4.93;2.70;;;;;;;8.97;64.21;96072.84;5032188;28;20469;-51
2021/03/27 06:43:48;;;;;;;4.75;2.90;;;;;;;8.96;64.17;96073.13;5014074;28;20056;-55
2021/03/27 06:46:23;;;;;;;8.20;2.88;;;;;;;8.86;63.95;96083.13;5037703;28;20479;-54
2021/03/27 06:49:27;;;;;;;5.25;2.45;;;;;;;8.90;63.15;96088.69;5031581;28;20049;-55
2021/03/27 06:51:57;;;;;;;4.60;2.33;;;;;;;8.91;62.40;96090.28;5032226;28;20049;-53
2021/03/27 06:54:44;;;;;;;4.93;2.53;;;;;;;9.14;62.80;96093.63;5030778;28;20514;-53
2021/03/27 06:57:26;;;;;;;4.50;2.22;;;;;;;9.27;61.82;96092.66;5029772;28;20049;-54
2021/03/27 07:00:17;;;;;;;3.75;2.30;;;;;;;9.17;61.41;96106.47;5031820;28;20046;-50
2021/03/27 07:03:15;;;;;;;4.68;2.30;;;;;;;9.10;61.38;96115.06;5031961;28;20053;-54
2021/03/27 07:05:45;;;;;;;3.25;2.10;;;;;;;9.21;61.44;96117.44;5048171;28;20073;-49
2021/03/27 07:09:15;;;;;;;3.75;2.10;;;;;;;9.09;61.65;96128.84;5060661;28;20127;-52
2021/03/27 07:12:12;;;;;;;6.43;2.40;;;;;;;9.04;62.58;96137.13;5049460;28;20059;-53
2021/03/27 07:15:15;;;;;;;5.53;2.35;;;;;;;9.00;62.75;96141.53;5049535;28;20136;-51
2021/03/27 07:18:10;;;;;;;4.13;2.22;;;;;;;8.94;62.55;96143.63;5011520;28;20053;-53
2021/03/27 07:21:14;;;;;;;5.97;2.85;;;;;;;8.83;63.05;96155.81;5033743;28;20498;-55
2021/03/27 07:24:25;;;;;;;5.70;2.63;;;;;;;8.86;62.56;96158.69;5048587;28;20041;-49
2021/03/27 07:27:26;;;;;;;4.30;2.17;;;;;;;8.81;63.82;96166.16;4991128;28;20505;-53
2021/03/27 07:30:25;;;;;;;3.80;2.42;;;;;;;8.62;64.85;96169.91;4992590;28;20538;-53
2021/03/27 07:33:02;;;;;;;8.52;2.65;;;;;;;8.66;65.88;96181.66;4996427;28;20071;-53
2021/03/27 07:36:07;;;;;;;4.72;2.28;;;;;;;8.44;66.92;96195.22;5031155;28;20049;-52
2021/03/27 07:39:02;;;;;;;5.10;2.45;;;;;;;7.71;71.76;96241.25;5029950;28;20053;-50
2021/03/27 07:42:17;;;;;;;3.78;1.02;;;;;;;6.16;77.39;96249.28;5031201;28;20522;-51
2021/03/27 07:44:59;;;;;;;;;;;;;;;5.50;81.37;96259.22;5023655;28;20049;-53
2021/03/27 07:47:50;;;;;;;2.00;0.90;;;;;;;5.75;81.24;96259.88;5030369;28;20420;-51
2021/03/27 07:50:17;;;;;;;1.70;0.80;;;;;;;5.63;77.05;96279.16;5049895;28;20498;-53
2021/03/27 07:53:00;;;;;;;0.50;0.50;;;;;;;5.38;76.28;96272.25;5051360;28;20053;-53
2021/03/27 07:56:06;;;;;;;1.23;0.80;;;;;;;5.28;77.43;96286.63;5048975;28;20053;-50
2021/03/27 07:58:47;;;;;;;2.72;0.80;;;;;;;5.25;78.90;96299.81;5033380;28;20061;-52
2021/03/27 08:01:32;;;;;;;2.45;0.60;;;;;;;4.97;79.55;96314.91;5031793;28;20103;-52
2021/03/27 08:04:17;;;;;;;3.42;0.70;;;;;;;4.99;79.33;96335.00;5051447;28;20533;-50
2021/03/27 08:06:53;;;;;;;6.22;1.00;;;;;;;5.06;80.76;96340.81;5044925;28;20049;-53
2021/03/27 08:09:20;;;;;;;0.98;0.75;;;;;;;4.99;81.19;96343.03;5050828;28;20056;-48
2021/03/27 08:12:21;;;;;;;1.42;0.57;;;;;;;5.00;80.00;96355.34;5051988;28;20055;-52
2021/03/27 08:15:06;;;;;;;2.85;1.02;;;;;;;4.91;78.76;96355.19;5049891;28;20567;-49
2021/03/27 08:18:02;;;;;;;1.23;0.63;;;;;;;5.14;78.10;96372.38;5048593;28;20041;-55
2021/03/27 08:20:57;;;;;;;1.85;0.60;;;;;;;5.18;76.60;96364.53;5048244;28;20057;-53
2021/03/27 08:23:46;;;;;;;1.25;0.77;;;;;;;5.26;75.29;96376.50;5050938;28;20536;-57
2021/03/27 08:27:03;;;;;;;1.30;0.77;;;;;;;5.48;74.45;96373.28;5047186;28;20045;-56
2021/03/27 08:29:44;;;;;;;2.17;0.80;;;;;;;5.60;74.65;96365.63;5051965;28;20049;-52
2021/03/27 08:32:34;;;;;;;2.80;0.90;;;;;;;5.94;75.79;96375.38;5060829;28;20054;-52
2021/03/27 08:35:23;;;;;;;0.80;0.60;;;;;;;5.91;73.67;96383.97;5056324;28;20531;-52
2021/03/27 08:38:26;;;;;;;2.65;0.80;;;;;;;5.97;72.41;96385.53;5044613;28;20130;-54
2021/03/27 08:41:16;;;;;;;1.23;0.70;;;;;;;6.36;73.41;96384.41;5050650;28;20045;-51
2021/03/27 08:44:06;;;;;;;3.85;0.95;;;;;;;6.62;72.37;96390.16;5049615;28;20044;-51
2021/03/27 08:47:00;;;;;;;2.63;1.00;;;;;;;6.94;70.64;96387.41;5019000;28;20060;-53
2021/03/27 08:49:45;;;;;;;1.70;0.70;;;;;;;6.34;71.11;96400.84;5050517;28;20064;-57
2021/03/27 08:52:22;;;;;;;1.67;0.70;;;;;;;6.56;71.04;96410.94;5050635;28;20057;-52
2021/03/27 08:55:23;;;;;;;1.30;0.70;;;;;;;6.44;71.43;96416.78;5039446;28;20577;-54
2021/03/27 08:58:28;;;;;;;2.53;1.00;;;;;;;6.69;71.53;96418.25;5028501;28;20045;-56
2021/03/27 09:01:13;;;;;;;1.52;0.90;;;;;;;7.01;71.57;96416.63;5027672;28;20601;-55
2021/03/27 09:03:58;;;;;;;5.75;1.00;;;;;;;7.14;69.18;96412.34;5030406;28;20054;-52
2021/03/27 09:06:52;;;;;;;2.47;0.80;;;;;;;7.30;69.53;96408.25;5033293;28;20057;-56
2021/03/27 09:09:47;;;;;;;3.33;0.88;;;;;;;7.46;69.22;96406.84;5053608;28;20545;-53
2021/03/27 09:12:38;;;;;;;1.17;0.85;;;;;;;7.36;68.91;96415.13;5052689;28;20049;-56
2021/03/27 09:15:22;;;;;;;1.80;1.13;;;;;;;7.61;68.62;96411.16;5047872;28;20170;-55
2021/03/27 09:18:13;;;;;;;2.33;1.20;;;;;;;7.42;67.52;96405.06;5033477;28;20068;-55
2021/03/27 09:20:48;;;;;;;1.73;1.10;;;;;;;7.30;67.78;96410.94;5033934;28;20510;-55
2021/03/27 09:23:27;;;;;;;3.45;1.30;;;;;;;7.58;66.54;96408.25;5033901;28;20053;-55
2021/03/27 09:26:12;;;;;;;3.50;1.52;;;;;;;7.63;67.01;96421.59;5033797;28;20068;-54
2021/03/27 09:28:57;;;;;;;1.95;1.00;;;;;;;7.60;66.85;96425.69;5033193;28;20057;-55
2021/03/27 09:32:01;;;;;;;2.45;1.20;;;;;;;7.86;64.92;96428.66;5033974;28;20069;-57
2021/03/27 09:34:56;;;;;;;2.53;1.25;;;;;;;8.07;66.49;96423.63;5032643;28;20046;-56
2021/03/27 09:37:53;;;;;;;1.95;1.27;;;;;;;8.18;65.24;96434.97;5032516;28;20670;-52
2021/03/27 09:40:34;;;;;;;1.92;1.10;;;;;;;8.16;64.07;96437.97;5033721;28;20495;-53
2021/03/27 09:43:35;;;;;;;2.05;1.10;;;;;;;8.03;63.73;96438.81;5033561;28;20050;-56
2021/03/27 09:46:15;;;;;;;1.98;1.10;;;;;;;8.01;64.38;96438.31;5033375;28;20406;-57
2021/03/27 09:49:03;;;;;;;2.92;1.20;;;;;;;8.08;65.97;96444.06;5031573;28;20049;-56
2021/03/27 09:51:52;;;;;;;3.20;1.20;;;;;;;8.23;66.19;96436.75;5033605;28;20062;-57
2021/03/27 09:55:15;;;;;;;2.80;1.35;;;;;;;8.48;63.26;96441.56;5032333;28;20042;-54
2021/03/27 09:57:45;;;;;;;;;;;;;;;8.49;59.70;96440.50;5033099;28;20049;-55
2021/03/27 10:00:36;;;;;;;1.27;0.70;;;;;;;8.26;55.43;96444.25;5032027;28;20006;-54
2021/03/27 10:03:13;;;;;;;0.80;0.60;;;;;;;8.32;53.22;96438.44;5032477;28;20053;-58
2021/03/27 10:06:08;;;;;;;1.08;0.88;;;;;;;8.59;52.16;96450.25;5033221;28;20136;-56
2021/03/27 10:08:49;;;;;;;1.35;0.65;;;;;;;8.57;51.16;96445.13;5032336;28;20053;-56
2021/03/27 10:11:31;;;;;;;1.08;0.60;;;;;;;8.76;49.61;96438.75;5033403;28;20065;-53
2021/03/27 10:14:20;;;;;;;1.42;0.90;;;;;;;8.65;51.21;96449.81;5033005;28;20061;-57
2021/03/27 10:16:56;;;;;;;1.63;0.65;;;;;;;8.60;50.33;96447.22;5031134;28;20502;-57
2021/03/27 10:19:22;;;;;;;2.60;0.60;;;;;;;8.73;51.15;96459.06;5031430;28;20049;-55
2021/03/27 10:22:28;;;;;;;1.80;0.65;;;;;;;8.63;47.82;96459.31;5032836;28;20502;-55
2021/03/27 10:25:19;;;;;;;0.60;0.60;;;;;;;8.65;48.86;96455.22;4991635;28;20511;-53
2021/03/27 10:28:23;;;;;;;1.17;0.50;;;;;;;8.70;48.48;96461.56;5032231;28;20149;-54
2021/03/27 10:31:01;;;;;;;2.72;0.73;;;;;;;9.06;47.76;96473.06;5032790;28;20049;-55
2021/03/27 10:33:40;;;;;;;1.85;0.70;;;;;;;9.46;48.00;96469.63;5032489;28;20479;-53
2021/03/27 10:36:29;;;;;;;2.17;0.60;;;;;;;9.35;47.70;96474.50;5015521;28;20053;-54
2021/03/27 10:38:55;;;;;;;1.73;0.60;;;;;;;9.34;46.67;96481.00;5032505;28;20050;-53
2021/03/27 10:41:39;;;;;;;0.52;0.50;;;;;;;8.98;46.74;96465.72;5031204;28;20084;-56
2021/03/27 10:44:34;;;;;;;1.67;0.70;;;;;;;9.24;47.29;96471.28;5031295;28;20061;-56
2021/03/27 10:47:40;;;;;;;1.92;0.93;;;;;;;8.91;47.00;96476.16;5031658;28;20077;-55
2021/03/27 10:50:29;;;;;;;2.15;0.70;;;;;;;8.82;48.39;96486.91;5026395;28;20080;-54
2021/03/27 10:53:22;;;;;;;2.25;0.77;;;;;;;8.58;47.68;96481.81;5031507;28;20060;-54
2021/03/27 10:56:08;;;;;;;;;;;;;;;8.24;48.18;96486.88;5027525;28;20050;-56
2021/03/27 10:59:05;;;;;;;1.63;0.70;;;;;;;8.18;48.39;96494.25;5031486;28;19921;-58
2021/03/27 11:01:53;;;;;;;1.17;0.70;;;;;;;7.98;49.24;96484.72;5032276;28;20433;-58
2021/03/27 11:04:59;;;;;;;1.55;0.70;;;;;;;7.87;49.90;96488.75;5031788;28;20064;-57
2021/03/27 11:07:36;;;;;;;0.88;0.63;;;;;;;8.02;49.59;96488.41;5031225;28;20045;-53
2021/03/27 11:10:40;;;;;;;1.55;1.10;;;;;;;7.80;50.09;96489.16;5031926;28;20072;-54
2021/03/27 11:13:40;;;;;;;1.30;0.73;;;;;;;7.60;50.77;96494.91;5031721;28;20053;-54
2021/03/27 11:16:45;;;;;;;1.25;0.70;;;;;;;7.67;51.55;96495.31;5031559;28;20056;-55
2021/03/27 11:19:30;;;;;;;1.20;0.68;;;;;;;7.96;51.01;96498.50;5030201;28;20411;-55
2021/03/27 11:22:05;;;;;;;3.80;0.50;;;;;;;7.68;51.57;96491.53;5030540;28;20053;-53
2021/03/27 11:24:59;;;;;;;3.97;0.80;;;;;;;8.01;51.22;96494.09;4997810;28;20064;-54
2021/03/27 11:27:34;;;;;;;;;;;;;;;7.84;51.70;96494.72;5031190;28;20060;-58
2021/03/27 11:30:08;;;;;;;1.83;0.75;;;;;;;7.77;52.23;96494.31;5030160;28;20317;-57
2021/03/27 11:32:45;;;;;;;1.00;0.70;;;;;;;8.04;51.46;96496.19;5031312;28;20049;-56
2021/03/27 11:35:22;;;;;;;3.75;1.00;;;;;;;7.82;52.00;96494.22;5031215;28;20053;-55
2021/03/27 11:38:03;;;;;;;2.88;1.50;;;;;;;7.65;52.98;96513.69;5030959;28;20073;-56
2021/03/27 11:40:42;;;;;;;1.40;0.77;;;;;;;7.96;52.81;96508.47;5031443;28;20059;-55
2021/03/27 11:43:23;;;;;;;2.83;0.68;;;;;;;7.89;53.20;96505.38;5031331;28;20499;-53
2021/03/27 11:45:59;;;;;;;2.65;0.90;;;;;;;8.05;53.82;96520.13;5030175;28;20064;-55
2021/03/27 11:48:34;;;;;;;1.80;0.90;;;;;;;8.13;53.30;96514.06;5029595;28;20054;-57
2021/03/27 11:51:24;;;;;;;0.77;0.70;;;;;;;7.89;54.28;96513.47;5030401;28;20095;-58
2021/03/27 11:53:57;;;;;;;1.83;0.90;;;;;;;8.32;54.27;96511.22;5031189;28;20053;-54
2021/03/27 11:56:48;;;;;;;1.83;0.88;;;;;;;8.53;54.65;96506.19;5031056;28;20049;-57
2021/03/27 12:02:48;;;;;;;1.20;0.63;;;;;;;8.47;54.02;96502.00;5031070;28;20052;-55
2021/03/27 12:05:47;;;;;;;1.25;0.80;;;;;;;8.82;53.23;96499.59;5030676;28;20045;-54
2021/03/27 12:08:21;;;;;;;1.48;0.73;;;;;;;8.91;53.01;96489.66;5030443;28;20045;-56
2021/03/27 12:11:12;;;;;;;1.55;1.02;;;;;;;9.49;52.12;96493.28;5031396;28;20107;-57
2021/03/27 12:13:38;;;;;;;2.22;0.82;;;;;;;9.47;51.21;96499.03;5031189;28;20120;-55
2021/03/27 12:16:27;;;;;;;2.38;0.70;;;;;;;8.60;51.95;96486.88;5049111;28;20053;-52
2021/03/27 12:19:03;;;;;;;3.33;0.90;;;;;;;9.73;49.80;96498.34;5032556;28;20049;-55
2021/03/27 12:21:34;;;;;;;2.80;1.02;;;;;;;10.84;46.34;96490.72;5049848;28;20048;-54
2021/03/27 12:24:09;;;;;;;2.20;0.98;;;;;;;10.32;46.50;96515.06;5050739;28;20453;-54
2021/03/27 12:26:54;;;;;;;2.75;0.88;;;;;;;10.55;45.97;96491.34;5030989;28;20053;-53
2021/03/27 12:29:30;;;;;;;2.78;1.02;;;;;;;11.13;45.40;96483.84;5031523;28;20565;-55
2021/03/27 12:32:09;;;;;;;5.18;1.27;;;;;;;11.63;43.82;96485.91;5030882;28;20049;-55
2021/03/27 12:34:42;;;;;;;3.10;1.05;;;;;;;11.30;43.60;96483.00;5031169;28;20577;-53
2021/03/27 12:37:14;;;;;;;4.07;1.30;;;;;;;10.66;44.56;96489.13;5029705;28;20053;-56
2021/03/27 12:39:56;;;;;;;1.90;1.10;;;;;;;10.29;45.35;96504.88;5030571;28;20061;-57
2021/03/27 12:42:47;;;;;;;2.10;0.98;;;;;;;9.00;48.63;96517.50;5034664;28;20128;-57
2021/03/27 12:45:34;;;;;;;2.85;1.25;;;;;;;9.33;48.95;96496.41;5032846;28;20132;-56
2021/03/27 12:48:17;;;;;;;2.92;1.23;;;;;;;9.81;48.30;96498.38;5033659;28;20111;-54
2021/03/27 12:51:09;;;;;;;3.60;1.40;;;;;;;9.56;47.67;96493.66;5034597;28;20057;-55
2021/03/27 12:53:44;;;;;;;3.20;1.10;;;;;;;9.00;48.10;96506.72;5034435;28;20062;-55
2021/03/27 12:56:33;;;;;;;4.40;1.00;;;;;;;9.09;47.54;96506.75;5034221;28;20049;-55
2021/03/27 12:59:02;;;;;;;5.80;1.92;;;;;;;9.18;47.74;96499.50;5032701;28;20060;-53
2021/03/27 13:02:06;;;;;;;1.83;0.90;;;;;;;9.09;47.37;96494.03;5033994;28;20129;-56
2021/03/27 13:05:06;;;;;;;2.33;1.27;;;;;;;9.44;46.94;96496.16;5034185;28;20053;-55
2021/03/27 13:07:46;;;;;;;4.43;1.02;;;;;;;9.97;46.15;96493.31;5032053;28;20041;-56
2021/03/27 13:10:31;;;;;;;1.38;0.95;;;;;;;10.00;44.99;96497.28;5033953;28;20053;-56
2021/03/27 13:13:02;;;;;;;1.63;1.00;;;;;;;9.90;45.75;96490.28;5034117;28;20054;-57